Time;durP1;ratioP1;P1;durP2;ratioP2;P2;SDS_P1;SDS_P2;PMS_P1;PMS_P2;Temp;Humidity;BMP_temperature;BMP_pressure;BME280_temperature;BME280_humidity;BME280_pressure;Samples;Min_cycle;Max_cycle;Signal;HPM_P1;HPM_P2
2022/10/18 00:00:28;;;;;;;14.18;9.45;;;;;;;;;;5055081;28;20472;-83
2022/10/18 00:02:54;;;;;;;13.80;9.43;;;;;;;;;;5057135;28;20036;-83
2022/10/18 00:05:20;;;;;;;15.18;9.95;;;;;;;;;;5056781;28;20067;-83
2022/10/18 00:07:46;;;;;;;12.13;9.57;;;;;;;;;;5055961;28;20548;-83
2022/10/18 00:10:12;;;;;;;14.20;9.65;;;;;;;;;;5033533;28;20032;-83
2022/10/18 00:12:39;;;;;;;14.82;9.57;;;;;;;;;;5057010;28;20025;-83
2022/10/18 00:15:06;;;;;;;13.60;9.77;;;;;;;;;;5039326;28;20017;-83
2022/10/18 00:17:34;;;;;;;12.73;9.18;;;;;;;;;;5039966;28;20021;-84
2022/10/18 00:20:00;;;;;;;14.50;9.85;;;;;;;;;;5055408;28;20029;-83
2022/10/18 00:22:26;;;;;;;14.52;9.63;;;;;;;;;;5038013;28;20116;-83
2022/10/18 00:24:52;;;;;;;14.15;10.30;;;;;;;;;;5056960;28;20078;-82
2022/10/18 00:27:18;;;;;;;14.38;10.15;;;;;;;;;;5037826;28;20492;-82
2022/10/18 00:29:44;;;;;;;13.75;10.00;;;;;;;;;;5056873;28;20043;-83
2022/10/18 00:32:13;;;;;;;14.10;10.02;;;;;;;;;;5055970;28;20062;-83
2022/10/18 00:34:39;;;;;;;15.35;10.15;;;;;;;;;;5056365;28;20024;-83
2022/10/18 00:37:06;;;;;;;15.43;11.13;;;;;;;;;;5057160;28;20024;-84
2022/10/18 00:39:32;;;;;;;14.50;9.85;;;;;;;;;;5054603;28;20029;-84
2022/10/18 00:41:58;;;;;;;12.88;9.65;;;;;;;;;;5036800;28;20040;-84
2022/10/18 00:44:24;;;;;;;12.90;9.10;;;;;;;;;;5055205;28;20025;-84
2022/10/18 00:46:50;;;;;;;14.38;10.85;;;;;;;;;;5038226;28;20119;-84
2022/10/18 00:49:42;;;;;;;14.02;9.73;;;;;;;;;;5035499;28;20042;-84
2022/10/18 00:52:16;;;;;;;16.07;9.93;;;;;;;;;;5049398;28;20033;-84
2022/10/18 00:54:43;;;;;;;13.18;9.35;;;;;;;;;;5035401;28;20037;-84
2022/10/18 00:57:10;;;;;;;15.65;10.45;;;;;;;;;;5033236;28;20029;-84
2022/10/18 00:59:36;;;;;;;14.50;10.27;;;;;;;;;;5034294;28;20026;-84
2022/10/18 01:02:03;;;;;;;14.88;10.50;;;;;;;;;;5034447;28;20030;-84
2022/10/18 01:04:29;;;;;;;12.60;9.55;;;;;;;;;;5023365;28;20028;-84
2022/10/18 01:07:14;;;;;;;14.13;9.85;;;;;;;;;;5033762;28;20026;-84
2022/10/18 01:09:58;;;;;;;15.43;10.02;;;;;;;;;;5035702;28;20545;-84
2022/10/18 01:12:36;;;;;;;13.55;9.45;;;;;;;;;;5031764;28;20025;-84
2022/10/18 01:15:06;;;;;;;13.55;9.23;;;;;;;;;;5044300;28;20036;-84
2022/10/18 01:17:43;;;;;;;15.40;9.75;;;;;;;;;;5046900;28;20276;-83
2022/10/18 01:20:21;;;;;;;12.50;9.88;;;;;;;;;;5046051;28;20047;-83
2022/10/18 01:22:50;;;;;;;14.85;9.85;;;;;;;;;;5044382;28;20087;-84
2022/10/18 01:25:29;;;;;;;14.77;9.85;;;;;;;;;;5039827;28;20022;-83
2022/10/18 01:27:58;;;;;;;15.95;10.77;;;;;;;;;;5036510;28;20089;-83
2022/10/18 01:30:36;;;;;;;14.15;10.00;;;;;;;;;;5048436;28;20047;-83
2022/10/18 01:33:15;;;;;;;17.15;10.25;;;;;;;;;;5023695;28;20022;-84
2022/10/18 01:35:43;;;;;;;13.30;10.23;;;;;;;;;;5021823;28;20018;-85
2022/10/18 01:38:12;;;;;;;12.27;9.35;;;;;;;;;;5027797;28;20025;-85
2022/10/18 01:40:41;;;;;;;13.05;10.10;;;;;;;;;;5040128;28;20040;-84
2022/10/18 01:43:08;;;;;;;12.40;9.05;;;;;;;;;;5043710;28;20401;-85
2022/10/18 01:45:34;;;;;;;14.20;9.60;;;;;;;;;;5037503;28;20029;-85
2022/10/18 01:48:01;;;;;;;14.43;10.27;;;;;;;;;;5037397;28;20099;-85
2022/10/18 01:50:33;;;;;;;14.77;9.68;;;;;;;;;;5038207;28;20029;-85
2022/10/18 01:53:00;;;;;;;12.40;8.40;;;;;;;;;;5035620;28;20022;-85
2022/10/18 01:55:37;;;;;;;11.60;8.45;;;;;;;;;;5036853;28;20034;-84
2022/10/18 01:58:06;;;;;;;13.65;9.07;;;;;;;;;;5037585;28;20052;-84
2022/10/18 02:00:39;;;;;;;13.02;8.95;;;;;;;;;;5037091;28;20028;-84
2022/10/18 02:03:20;;;;;;;13.65;9.55;;;;;;;;;;5031589;28;20033;-85
2022/10/18 02:05:51;;;;;;;13.75;8.60;;;;;;;;;;5037824;28;20048;-83
2022/10/18 02:08:29;;;;;;;12.80;8.70;;;;;;;;;;5036476;28;20148;-84
2022/10/18 02:11:01;;;;;;;12.98;9.38;;;;;;;;;;5036494;28;20053;-84
2022/10/18 02:13:30;;;;;;;11.65;9.07;;;;;;;;;;5036013;28;20034;-84
2022/10/18 02:15:59;;;;;;;13.60;9.23;;;;;;;;;;5037416;28;20026;-84
2022/10/18 02:18:28;;;;;;;14.40;9.30;;;;;;;;;;5036776;28;20025;-85
2022/10/18 02:20:55;;;;;;;11.30;8.60;;;;;;;;;;5036420;28;20036;-85
2022/10/18 02:23:22;;;;;;;12.77;8.48;;;;;;;;;;5034443;28;20033;-85
2022/10/18 02:25:48;;;;;;;13.43;9.05;;;;;;;;;;5035569;28;20083;-85
2022/10/18 02:28:15;;;;;;;12.30;8.30;;;;;;;;;;5036313;28;20555;-85
2022/10/18 02:30:46;;;;;;;12.07;8.75;;;;;;;;;;5035040;28;20037;-84
2022/10/18 02:33:18;;;;;;;11.55;8.38;;;;;;;;;;5035890;28;20052;-84
2022/10/18 02:35:50;;;;;;;13.90;9.25;;;;;;;;;;5036359;28;20060;-85
2022/10/18 02:38:17;;;;;;;12.85;8.90;;;;;;;;;;5037470;28;20480;-85
2022/10/18 02:40:43;;;;;;;12.15;8.25;;;;;;;;;;5035243;28;20044;-84
2022/10/18 02:43:09;;;;;;;12.48;8.80;;;;;;;;;;5035751;28;20029;-85
2022/10/18 02:45:35;;;;;;;13.48;8.65;;;;;;;;;;5033583;28;20030;-84
2022/10/18 02:48:01;;;;;;;11.43;8.63;;;;;;;;;;5040948;28;20120;-84
2022/10/18 02:50:27;;;;;;;13.02;8.85;;;;;;;;;;5036407;28;20115;-85
2022/10/18 02:52:53;;;;;;;13.95;9.13;;;;;;;;;;5038102;28;20029;-84
2022/10/18 02:55:19;;;;;;;14.27;9.30;;;;;;;;;;5029534;28;20095;-84
2022/10/18 02:57:45;;;;;;;14.15;9.43;;;;;;;;;;5053855;28;20036;-84
2022/10/18 03:00:11;;;;;;;14.75;9.32;;;;;;;;;;5042764;28;20025;-83
2022/10/18 03:02:37;;;;;;;12.32;9.40;;;;;;;;;;5059812;28;20412;-84
2022/10/18 03:05:03;;;;;;;12.02;8.50;;;;;;;;;;5055293;28;20107;-84
2022/10/18 03:07:29;;;;;;;13.50;9.50;;;;;;;;;;5054029;28;20021;-84
2022/10/18 03:09:55;;;;;;;11.43;8.38;;;;;;;;;;5055057;28;20028;-84
2022/10/18 03:12:24;;;;;;;15.25;8.95;;;;;;;;;;5037169;28;20025;-84
2022/10/18 03:14:50;;;;;;;14.35;8.90;;;;;;;;;;5037112;28;20032;-84
2022/10/18 03:17:16;;;;;;;17.38;10.07;;;;;;;;;;5055322;28;20017;-84
2022/10/18 03:19:42;;;;;;;12.75;8.43;;;;;;;;;;5036366;28;20040;-84
2022/10/18 03:22:08;;;;;;;14.27;9.57;;;;;;;;;;5054989;28;20403;-84
2022/10/18 03:24:34;;;;;;;14.93;9.23;;;;;;;;;;5037195;28;20071;-84
2022/10/18 03:27:00;;;;;;;14.32;8.88;;;;;;;;;;5055454;28;20037;-84
2022/10/18 03:29:26;;;;;;;14.00;10.02;;;;;;;;;;5055312;28;20033;-84
2022/10/18 03:31:52;;;;;;;14.13;9.15;;;;;;;;;;5038536;28;20036;-84
2022/10/18 03:34:18;;;;;;;13.38;9.13;;;;;;;;;;5057624;28;20028;-84
2022/10/18 03:36:44;;;;;;;14.98;9.18;;;;;;;;;;5059389;28;20056;-84
2022/10/18 03:39:11;;;;;;;12.10;8.40;;;;;;;;;;5057579;28;20519;-84
2022/10/18 03:41:37;;;;;;;14.55;8.43;;;;;;;;;;5033831;28;20472;-84
2022/10/18 03:44:03;;;;;;;12.63;9.35;;;;;;;;;;5056040;28;20025;-85
2022/10/18 03:46:29;;;;;;;13.82;9.60;;;;;;;;;;5057233;28;20063;-84
2022/10/18 03:48:55;;;;;;;14.95;10.18;;;;;;;;;;5037453;28;20033;-84
2022/10/18 03:51:21;;;;;;;16.80;10.15;;;;;;;;;;5036316;28;20473;-84
2022/10/18 03:53:47;;;;;;;15.18;9.90;;;;;;;;;;5057730;28;20546;-84
2022/10/18 03:56:13;;;;;;;12.75;8.77;;;;;;;;;;5039944;28;20021;-85
2022/10/18 03:58:39;;;;;;;15.05;9.65;;;;;;;;;;5057947;28;20033;-84
2022/10/18 04:01:05;;;;;;;13.50;9.32;;;;;;;;;;5056296;28;20029;-84
2022/10/18 04:03:32;;;;;;;15.18;9.43;;;;;;;;;;5040995;28;20086;-85
2022/10/18 04:05:59;;;;;;;15.70;10.13;;;;;;;;;;5058304;28;20033;-84
2022/10/18 04:08:25;;;;;;;13.75;9.50;;;;;;;;;;5037818;28;20021;-84
2022/10/18 04:10:52;;;;;;;14.57;9.98;;;;;;;;;;5056801;28;20021;-85
2022/10/18 04:13:18;;;;;;;14.73;9.80;;;;;;;;;;5054673;28;20079;-85
2022/10/18 04:15:44;;;;;;;13.77;9.43;;;;;;;;;;5038984;28;20388;-84
2022/10/18 04:18:10;;;;;;;14.63;9.38;;;;;;;;;;5059262;28;20032;-84
2022/10/18 04:20:36;;;;;;;17.25;11.02;;;;;;;;;;5058809;28;20088;-84
2022/10/18 04:23:02;;;;;;;14.63;10.75;;;;;;;;;;5040442;28;20028;-84
2022/10/18 04:25:28;;;;;;;15.43;9.68;;;;;;;;;;5058903;28;20033;-85
2022/10/18 04:27:54;;;;;;;14.80;10.05;;;;;;;;;;5041010;28;20392;-85
2022/10/18 04:30:20;;;;;;;13.23;9.25;;;;;;;;;;5058825;28;20032;-85
2022/10/18 04:32:46;;;;;;;14.80;9.23;;;;;;;;;;5056561;28;20053;-82
2022/10/18 04:35:12;;;;;;;16.15;9.75;;;;;;;;;;5056531;28;20045;-84
2022/10/18 04:37:38;;;;;;;15.27;8.98;;;;;;;;;;5038228;28;20039;-84
2022/10/18 04:40:05;;;;;;;14.52;10.05;;;;;;;;;;5054345;28;20017;-84
2022/10/18 04:42:31;;;;;;;16.30;9.00;;;;;;;;;;5037414;28;20032;-84
2022/10/18 04:44:56;;;;;;;15.90;9.52;;;;;;;;;;5039970;28;20029;-84
2022/10/18 04:47:24;;;;;;;13.70;9.20;;;;;;;;;;5058636;28;20033;-85
2022/10/18 04:49:49;;;;;;;14.50;9.25;;;;;;;;;;5056269;28;20051;-85
2022/10/18 04:52:16;;;;;;;13.02;9.20;;;;;;;;;;5055595;28;20025;-84
2022/10/18 04:54:42;;;;;;;12.68;9.07;;;;;;;;;;5021271;28;20021;-84
2022/10/18 04:57:08;;;;;;;15.98;9.32;;;;;;;;;;5038429;28;20056;-84
2022/10/18 04:59:34;;;;;;;14.50;9.20;;;;;;;;;;5038503;28;20088;-84
2022/10/18 05:02:00;;;;;;;15.27;10.02;;;;;;;;;;5060496;28;20078;-84
2022/10/18 05:04:26;;;;;;;14.52;9.65;;;;;;;;;;5059267;28;20036;-83
2022/10/18 05:06:53;;;;;;;14.43;8.98;;;;;;;;;;5057805;28;20104;-84
2022/10/18 05:09:21;;;;;;;16.50;10.20;;;;;;;;;;5040579;28;20021;-84
2022/10/18 05:11:47;;;;;;;15.32;9.65;;;;;;;;;;5039103;28;20345;-84
2022/10/18 05:14:13;;;;;;;13.27;9.52;;;;;;;;;;5057186;28;20341;-84
2022/10/18 05:16:39;;;;;;;13.25;9.55;;;;;;;;;;5034828;28;20017;-84
2022/10/18 05:19:05;;;;;;;15.10;9.73;;;;;;;;;;5036465;28;20044;-83
2022/10/18 05:21:31;;;;;;;14.65;10.07;;;;;;;;;;5058168;28;20031;-83
2022/10/18 05:23:57;;;;;;;14.30;9.75;;;;;;;;;;5056626;28;20452;-84
2022/10/18 05:26:23;;;;;;;17.15;10.00;;;;;;;;;;5040759;28;20029;-84
2022/10/18 05:28:50;;;;;;;13.68;9.27;;;;;;;;;;5058356;28;20043;-83
2022/10/18 05:31:16;;;;;;;12.73;8.73;;;;;;;;;;5058453;28;20021;-83
2022/10/18 05:33:42;;;;;;;13.35;9.27;;;;;;;;;;5057504;28;20108;-84
2022/10/18 05:36:08;;;;;;;13.68;9.23;;;;;;;;;;5058627;28;20057;-83
2022/10/18 05:38:34;;;;;;;13.90;9.05;;;;;;;;;;5057715;28;20031;-83
2022/10/18 05:41:03;;;;;;;16.67;10.00;;;;;;;;;;5058868;28;20480;-84
2022/10/18 05:43:29;;;;;;;18.58;8.90;;;;;;;;;;5039188;28;20055;-83
2022/10/18 05:45:55;;;;;;;15.13;9.40;;;;;;;;;;5057672;28;20477;-83
2022/10/18 05:54:27;;;;;;;16.58;12.20;;;;;;;;;;949223;26;21191;-84
2022/10/18 05:57:03;;;;;;;21.73;13.82;;;;;;;;;;5075005;28;20132;-84
2022/10/18 05:59:29;;;;;;;23.02;18.13;;;;;;;;;;5076140;28;20028;-83
2022/10/18 06:01:55;;;;;;;21.17;16.85;;;;;;;;;;5073264;28;20027;-84
2022/10/18 06:04:22;;;;;;;19.48;13.40;;;;;;;;;;5058204;28;20060;-83
2022/10/18 06:06:47;;;;;;;16.65;11.68;;;;;;;;;;5076080;28;20032;-83
2022/10/18 06:09:13;;;;;;;16.25;12.82;;;;;;;;;;5076576;28;20021;-83
2022/10/18 06:11:40;;;;;;;18.77;12.13;;;;;;;;;;5061091;28;20397;-84
2022/10/18 06:14:07;;;;;;;15.98;11.13;;;;;;;;;;5056516;28;20491;-83
2022/10/18 06:16:33;;;;;;;14.68;9.70;;;;;;;;;;5072574;28;20028;-83
2022/10/18 06:18:59;;;;;;;23.55;12.30;;;;;;;;;;5071888;28;20480;-83
2022/10/18 06:21:26;;;;;;;36.20;22.50;;;;;;;;;;5059149;28;20542;-84
2022/10/18 06:23:53;;;;;;;32.58;19.45;;;;;;;;;;5046753;28;20444;-83
2022/10/18 06:26:19;;;;;;;21.08;13.18;;;;;;;;;;5034252;28;20490;-83
2022/10/18 06:28:45;;;;;;;17.33;12.25;;;;;;;;;;5053671;28;20025;-83
2022/10/18 06:31:12;;;;;;;16.35;10.93;;;;;;;;;;5064067;28;20082;-83
2022/10/18 06:33:38;;;;;;;16.00;11.98;;;;;;;;;;5075333;28;20031;-83
2022/10/18 06:36:06;;;;;;;22.58;15.15;;;;;;;;;;5076333;28;20024;-83
2022/10/18 06:38:32;;;;;;;23.58;14.98;;;;;;;;;;5076806;28;20549;-83
2022/10/18 06:40:59;;;;;;;20.83;14.90;;;;;;;;;;5075925;28;20046;-83
2022/10/18 06:43:25;;;;;;;18.67;11.63;;;;;;;;;;5057352;28;20105;-83
2022/10/18 06:45:51;;;;;;;21.52;12.23;;;;;;;;;;5058852;28;20066;-83
2022/10/18 06:48:18;;;;;;;20.38;12.00;;;;;;;;;;5076758;28;20024;-84
2022/10/18 06:50:50;;;;;;;15.10;10.93;;;;;;;;;;5058068;28;20016;-84
2022/10/18 06:53:16;;;;;;;14.32;10.00;;;;;;;;;;5067690;28;20055;-85
2022/10/18 06:55:42;;;;;;;15.48;10.25;;;;;;;;;;5078597;28;20089;-84
2022/10/18 06:58:08;;;;;;;15.85;10.45;;;;;;;;;;5079139;28;20028;-84
2022/10/18 07:00:35;;;;;;;15.10;10.82;;;;;;;;;;5075225;28;20028;-84
2022/10/18 07:03:01;;;;;;;21.38;12.07;;;;;;;;;;5068117;28;20028;-84
2022/10/18 07:05:27;;;;;;;16.83;11.60;;;;;;;;;;5059494;28;20028;-83
2022/10/18 07:07:53;;;;;;;15.55;11.55;;;;;;;;;;5078548;28;20029;-83
2022/10/18 07:10:19;;;;;;;15.93;10.35;;;;;;;;;;5060505;28;20025;-83
2022/10/18 07:12:45;;;;;;;14.45;9.93;;;;;;;;;;5070142;28;20025;-83
2022/10/18 07:15:11;;;;;;;16.17;10.15;;;;;;;;;;5059822;28;20396;-84
2022/10/18 07:17:37;;;;;;;15.80;9.20;;;;;;;;;;5059659;28;20033;-84
2022/10/18 07:20:03;;;;;;;14.60;9.55;;;;;;;;;;5043283;28;20036;-83
2022/10/18 07:22:29;;;;;;;13.30;8.90;;;;;;;;;;5072149;28;20112;-84
2022/10/18 07:24:55;;;;;;;13.55;9.63;;;;;;;;;;5062281;28;20054;-84
2022/10/18 07:27:21;;;;;;;13.35;8.85;;;;;;;;;;5079749;28;20024;-83
2022/10/18 07:29:48;;;;;;;13.35;9.60;;;;;;;;;;5077692;28;20480;-83
2022/10/18 07:32:14;;;;;;;11.93;9.10;;;;;;;;;;5059783;28;20156;-84
2022/10/18 07:34:40;;;;;;;12.65;9.10;;;;;;;;;;5041775;28;20063;-83
2022/10/18 07:37:06;;;;;;;10.75;8.45;;;;;;;;;;5060385;28;20029;-83
2022/10/18 07:39:32;;;;;;;12.77;8.60;;;;;;;;;;5058455;28;20021;-83
2022/10/18 07:41:58;;;;;;;14.07;9.52;;;;;;;;;;5075998;28;20119;-84
2022/10/18 07:44:24;;;;;;;13.45;9.40;;;;;;;;;;5075983;28;20052;-84
2022/10/18 07:46:50;;;;;;;13.30;10.00;;;;;;;;;;5060431;28;20028;-84
2022/10/18 07:49:16;;;;;;;13.80;9.23;;;;;;;;;;5065852;28;20083;-85
2022/10/18 07:51:43;;;;;;;13.27;9.57;;;;;;;;;;5062192;28;20040;-84
2022/10/18 07:54:09;;;;;;;15.73;9.50;;;;;;;;;;5076641;28;20029;-84
2022/10/18 07:56:35;;;;;;;13.85;9.10;;;;;;;;;;5081319;28;20049;-84
2022/10/18 07:59:01;;;;;;;13.52;8.93;;;;;;;;;;5081495;28;20035;-84
2022/10/18 08:01:27;;;;;;;14.38;9.93;;;;;;;;;;5060338;28;20113;-85
2022/10/18 08:03:53;;;;;;;13.65;10.05;;;;;;;;;;5079967;28;20032;-85
2022/10/18 08:06:20;;;;;;;13.18;9.88;;;;;;;;;;5062952;28;20491;-84
2022/10/18 08:08:46;;;;;;;10.50;8.48;;;;;;;;;;5080070;28;20029;-85
2022/10/18 08:11:14;;;;;;;13.63;9.70;;;;;;;;;;5078988;28;20029;-84
2022/10/18 08:13:40;;;;;;;10.82;8.50;;;;;;;;;;5079769;28;20024;-84
2022/10/18 08:16:07;;;;;;;14.02;8.77;;;;;;;;;;5063013;28;20098;-84
2022/10/18 08:18:34;;;;;;;10.98;8.63;;;;;;;;;;5081279;28;20383;-84
2022/10/18 08:21:00;;;;;;;13.38;9.00;;;;;;;;;;5077733;28;20063;-84
2022/10/18 08:23:26;;;;;;;15.32;9.60;;;;;;;;;;5046486;28;20418;-84
2022/10/18 08:25:52;;;;;;;12.43;9.63;;;;;;;;;;5080678;28;20119;-84
2022/10/18 08:28:18;;;;;;;13.75;9.63;;;;;;;;;;5061840;28;20036;-84
2022/10/18 08:30:45;;;;;;;14.88;10.38;;;;;;;;;;5062110;28;20495;-85
2022/10/18 08:33:11;;;;;;;13.85;9.68;;;;;;;;;;5052574;28;20029;-85
2022/10/18 08:35:37;;;;;;;14.85;9.25;;;;;;;;;;5059882;28;20029;-84
2022/10/18 08:38:03;;;;;;;11.85;9.32;;;;;;;;;;5060387;28;20032;-84
2022/10/18 08:40:32;;;;;;;15.27;9.35;;;;;;;;;;5060645;28;20029;-84
2022/10/18 08:43:07;;;;;;;12.93;9.13;;;;;;;;;;5060432;28;21006;-84
2022/10/18 08:45:40;;;;;;;13.30;10.07;;;;;;;;;;5048554;28;20021;-84
2022/10/18 08:48:07;;;;;;;12.13;9.50;;;;;;;;;;5059460;28;20025;-85
2022/10/18 08:50:36;;;;;;;14.00;9.73;;;;;;;;;;5058651;28;20028;-84
2022/10/18 08:53:11;;;;;;;12.93;9.70;;;;;;;;;;5054211;28;20013;-84
2022/10/18 08:55:40;;;;;;;12.82;9.20;;;;;;;;;;5066423;28;20049;-84
2022/10/18 08:58:15;;;;;;;12.60;9.93;;;;;;;;;;5060008;28;20029;-84
2022/10/18 09:00:44;;;;;;;12.73;10.00;;;;;;;;;;5069341;28;20028;-83
2022/10/18 09:03:17;;;;;;;13.35;9.77;;;;;;;;;;5072010;28;20049;-83
2022/10/18 09:05:48;;;;;;;12.52;8.93;;;;;;;;;;5041347;28;20055;-84
2022/10/18 09:08:20;;;;;;;14.20;9.55;;;;;;;;;;5060445;28;20104;-84
2022/10/18 09:10:46;;;;;;;12.70;9.23;;;;;;;;;;5041556;28;20024;-84
2022/10/18 09:13:12;;;;;;;12.23;9.35;;;;;;;;;;5064246;28;20488;-84
2022/10/18 09:15:38;;;;;;;14.10;8.95;;;;;;;;;;5060659;28;20040;-84
2022/10/18 09:18:19;;;;;;;11.77;9.48;;;;;;;;;;5060208;28;20024;-84
2022/10/18 09:20:57;;;;;;;13.75;9.50;;;;;;;;;;5048713;28;20024;-84
2022/10/18 09:23:23;;;;;;;13.27;9.98;;;;;;;;;;5062419;28;20480;-84
2022/10/18 09:25:55;;;;;;;12.80;10.05;;;;;;;;;;5061535;28;20536;-84
2022/10/18 09:28:27;;;;;;;13.87;9.80;;;;;;;;;;5062230;28;20063;-84
2022/10/18 09:31:16;;;;;;;13.33;9.77;;;;;;;;;;5047583;28;20330;-85
2022/10/18 09:33:45;;;;;;;13.65;10.10;;;;;;;;;;5059059;28;20286;-84
2022/10/18 09:36:16;;;;;;;13.68;9.38;;;;;;;;;;5039143;28;20017;-84
2022/10/18 09:38:44;;;;;;;12.23;9.52;;;;;;;;;;5042704;28;20033;-83
2022/10/18 09:41:25;;;;;;;14.23;9.13;;;;;;;;;;5074154;28;20104;-84
2022/10/18 09:43:54;;;;;;;12.57;9.85;;;;;;;;;;5074318;28;20052;-84
2022/10/18 09:46:21;;;;;;;12.73;9.63;;;;;;;;;;5058810;28;20024;-85
2022/10/18 09:49:01;;;;;;;13.73;9.90;;;;;;;;;;5080872;23;20505;-84
2022/10/18 09:51:30;;;;;;;13.35;9.90;;;;;;;;;;5041889;28;20029;-84
2022/10/18 09:54:14;;;;;;;13.98;9.75;;;;;;;;;;5045290;28;20518;-84
2022/10/18 09:56:40;;;;;;;14.05;10.30;;;;;;;;;;5055769;28;20040;-84
2022/10/18 09:59:16;;;;;;;13.25;10.50;;;;;;;;;;5056277;28;20037;-84
2022/10/18 10:01:42;;;;;;;14.15;10.80;;;;;;;;;;5069086;28;20040;-84
2022/10/18 10:04:08;;;;;;;12.95;10.82;;;;;;;;;;5060330;28;20107;-84
2022/10/18 10:06:37;;;;;;;13.48;10.25;;;;;;;;;;5047554;28;20500;-84
2022/10/18 10:09:07;;;;;;;17.02;10.57;;;;;;;;;;5058543;28;20025;-84
2022/10/18 10:11:39;;;;;;;17.40;11.30;;;;;;;;;;5067782;28;20095;-84
2022/10/18 10:14:21;;;;;;;13.10;10.18;;;;;;;;;;5039913;28;20075;-83
2022/10/18 10:16:48;;;;;;;14.90;11.18;;;;;;;;;;5066883;28;20038;-84
2022/10/18 10:19:19;;;;;;;12.95;10.32;;;;;;;;;;5060808;28;20071;-85
2022/10/18 10:21:46;;;;;;;14.90;11.43;;;;;;;;;;5077685;28;20481;-84
2022/10/18 10:24:21;;;;;;;16.08;11.18;;;;;;;;;;5076997;28;20024;-85
2022/10/18 10:26:47;;;;;;;14.32;10.80;;;;;;;;;;5075462;28;20081;-84
2022/10/18 10:29:32;;;;;;;14.65;11.25;;;;;;;;;;5058484;28;20050;-85
2022/10/18 10:32:03;;;;;;;16.38;10.90;;;;;;;;;;5072985;28;20035;-85
2022/10/18 10:34:29;;;;;;;14.20;11.05;;;;;;;;;;5073325;28;20060;-85
2022/10/18 10:36:56;;;;;;;21.60;12.30;;;;;;;;;;5055393;28;20021;-84
2022/10/18 10:39:23;;;;;;;17.05;10.55;;;;;;;;;;5054678;28;20463;-84
2022/10/18 10:41:54;;;;;;;16.65;11.82;;;;;;;;;;5052928;28;20483;-83
2022/10/18 10:44:21;;;;;;;14.65;11.45;;;;;;;;;;5077091;28;20064;-83
2022/10/18 10:46:51;;;;;;;14.30;10.68;;;;;;;;;;5072874;28;20130;-85
2022/10/18 10:49:24;;;;;;;14.40;11.85;;;;;;;;;;5040938;28;20130;-84
2022/10/18 10:51:54;;;;;;;15.02;10.38;;;;;;;;;;5071808;28;20025;-85
2022/10/18 10:54:24;;;;;;;15.35;11.05;;;;;;;;;;5072614;28;20058;-85
2022/10/18 10:57:04;;;;;;;14.43;11.05;;;;;;;;;;5036507;28;20021;-85
2022/10/18 10:59:31;;;;;;;14.38;10.70;;;;;;;;;;5058212;28;20480;-84
2022/10/18 11:02:19;;;;;;;14.95;10.93;;;;;;;;;;5051421;28;20029;-85
2022/10/18 11:04:46;;;;;;;15.00;11.35;;;;;;;;;;5057868;28;20035;-84
2022/10/18 11:07:18;;;;;;;16.88;11.73;;;;;;;;;;5041521;28;20052;-85
2022/10/18 11:10:07;;;;;;;13.88;10.82;;;;;;;;;;5078309;28;20064;-85
2022/10/18 11:12:37;;;;;;;14.25;10.60;;;;;;;;;;5067110;28;20366;-85
2022/10/18 11:15:04;;;;;;;14.45;12.43;;;;;;;;;;5052657;28;20485;-84
2022/10/18 11:17:46;;;;;;;17.50;12.15;;;;;;;;;;5062982;28;20017;-84
2022/10/18 11:20:21;;;;;;;15.05;11.85;;;;;;;;;;5076016;28;20067;-84
2022/10/18 11:23:06;;;;;;;14.35;12.00;;;;;;;;;;5059002;28;20036;-84
2022/10/18 11:25:45;;;;;;;14.20;11.77;;;;;;;;;;5052715;28;20124;-84
2022/10/18 11:28:33;;;;;;;13.35;11.95;;;;;;;;;;5041571;28;20025;-84
2022/10/18 11:31:22;;;;;;;14.98;12.35;;;;;;;;;;5057542;28;20025;-85
2022/10/18 11:34:01;;;;;;;15.65;11.63;;;;;;;;;;5061739;28;20070;-84
2022/10/18 11:36:34;;;;;;;16.17;13.63;;;;;;;;;;5081983;28;20044;-84
2022/10/18 11:39:14;;;;;;;15.18;11.38;;;;;;;;;;5062604;28;20024;-84
2022/10/18 11:41:46;;;;;;;15.70;12.45;;;;;;;;;;5070579;28;20119;-84
2022/10/18 11:44:12;;;;;;;15.00;11.57;;;;;;;;;;5061851;28;20025;-84
2022/10/18 11:46:41;;;;;;;14.23;11.90;;;;;;;;;;5078778;28;20049;-85
2022/10/18 11:49:37;;;;;;;14.05;11.90;;;;;;;;;;5059437;28;20049;-85
2022/10/18 11:52:03;;;;;;;13.65;10.68;;;;;;;;;;5056767;28;20053;-84
2022/10/18 11:54:44;;;;;;;13.95;11.45;;;;;;;;;;5061381;28;20614;-85
2022/10/18 12:00:01;;;;;;;15.95;12.05;;;;;;;;;;5132887;22;20055;-84
2022/10/18 12:02:51;;;;;;;14.95;11.57;;;;;;;;;;5040998;28;20029;-84
2022/10/18 12:05:24;;;;;;;13.77;11.70;;;;;;;;;;5058346;28;20033;-85
2022/10/18 12:11:05;;;;;;;15.07;11.18;;;;;;;;;;5054615;28;20523;-84
2022/10/18 12:13:38;;;;;;;14.95;12.25;;;;;;;;;;5039728;28;20056;-84
2022/10/18 12:16:39;;;;;;;15.68;12.55;;;;;;;;;;5039610;28;20025;-84
2022/10/18 12:24:25;;;;;;;15.93;12.32;;;;;;;;;;4377414;26;20045;-85
2022/10/18 12:26:55;;;;;;;16.48;11.98;;;;;;;;;;5074344;28;20025;-85
2022/10/18 12:29:25;;;;;;;14.77;11.70;;;;;;;;;;5055984;28;20022;-85
2022/10/18 12:32:12;;;;;;;15.98;12.57;;;;;;;;;;5056555;28;20025;-85
2022/10/18 12:34:39;;;;;;;14.77;11.70;;;;;;;;;;5038102;28;20054;-85
2022/10/18 12:37:14;;;;;;;15.13;12.88;;;;;;;;;;5021495;28;20029;-85
2022/10/18 12:39:42;;;;;;;14.65;11.35;;;;;;;;;;5019589;28;20037;-85
2022/10/18 12:42:22;;;;;;;15.50;12.93;;;;;;;;;;5049815;28;20064;-84
2022/10/18 12:44:48;;;;;;;17.80;12.07;;;;;;;;;;5053128;28;20551;-84
2022/10/18 12:47:21;;;;;;;15.25;12.02;;;;;;;;;;5053344;28;20029;-84
2022/10/18 12:49:55;;;;;;;16.35;12.82;;;;;;;;;;5053278;28;20392;-84
2022/10/18 12:52:25;;;;;;;16.05;12.15;;;;;;;;;;5053312;28;20393;-84
2022/10/18 12:55:26;;;;;;;16.70;13.10;;;;;;;;;;5037522;28;20442;-84
2022/10/18 12:57:52;;;;;;;17.58;12.98;;;;;;;;;;5056727;28;20025;-84
2022/10/18 13:00:30;;;;;;;17.05;12.63;;;;;;;;;;5054880;28;20378;-85
2022/10/18 13:03:11;;;;;;;16.75;13.15;;;;;;;;;;5035831;28;20389;-84
2022/10/18 13:05:46;;;;;;;17.20;12.52;;;;;;;;;;5055120;28;20021;-84
2022/10/18 13:08:36;;;;;;;15.30;11.57;;;;;;;;;;5055223;28;20162;-84
2022/10/18 13:11:11;;;;;;;16.13;12.57;;;;;;;;;;5054766;28;20017;-84
2022/10/18 13:13:43;;;;;;;15.00;11.90;;;;;;;;;;5054644;28;20079;-84
2022/10/18 13:16:21;;;;;;;18.17;13.45;;;;;;;;;;5054638;28;20017;-84
2022/10/18 13:18:58;;;;;;;16.90;12.27;;;;;;;;;;5038863;28;20052;-84
2022/10/18 13:21:43;;;;;;;16.23;12.98;;;;;;;;;;5060991;28;20021;-83
2022/10/18 13:24:14;;;;;;;14.60;12.32;;;;;;;;;;5062242;28;20064;-84
2022/10/18 13:26:40;;;;;;;15.73;12.25;;;;;;;;;;5042466;28;20032;-83
2022/10/18 13:29:24;;;;;;;17.80;12.95;;;;;;;;;;5055888;28;20166;-84
2022/10/18 13:31:50;;;;;;;18.05;12.93;;;;;;;;;;5039185;28;20033;-84
2022/10/18 13:34:28;;;;;;;17.73;13.93;;;;;;;;;;5040828;28;20022;-84
2022/10/18 13:37:05;;;;;;;16.80;13.30;;;;;;;;;;5036625;28;20379;-84
2022/10/18 13:39:32;;;;;;;17.73;12.75;;;;;;;;;;5043459;28;20033;-83
2022/10/18 13:41:59;;;;;;;19.80;14.57;;;;;;;;;;5041340;28;20053;-83
2022/10/18 13:44:32;;;;;;;16.58;13.15;;;;;;;;;;5044639;28;20025;-83
2022/10/18 13:46:58;;;;;;;;;;;;;;;;;;5027967;28;20053;-84
2022/10/18 13:49:39;;;;;;;17.48;12.48;;;;;;;;;;5051640;28;19914;-84
2022/10/18 13:52:05;;;;;;;14.48;11.63;;;;;;;;;;5055820;28;20025;-84
2022/10/18 13:54:50;;;;;;;16.98;12.70;;;;;;;;;;5046522;28;20092;-83
2022/10/18 13:57:19;;;;;;;18.83;14.20;;;;;;;;;;5048999;28;20063;-83
2022/10/18 13:59:59;;;;;;;19.98;13.63;;;;;;;;;;5063334;28;20108;-83
2022/10/18 14:02:44;;;;;;;19.92;12.73;;;;;;;;;;5060742;28;20071;-84
2022/10/18 14:05:13;;;;;;;17.50;13.77;;;;;;;;;;5061998;28;20047;-84
2022/10/18 14:07:42;;;;;;;17.92;13.35;;;;;;;;;;5046642;28;20089;-83
2022/10/18 14:10:20;;;;;;;19.17;13.52;;;;;;;;;;5061279;28;20052;-83
2022/10/18 14:12:51;;;;;;;16.75;12.88;;;;;;;;;;5043833;28;20416;-83
2022/10/18 14:15:23;;;;;;;16.58;12.38;;;;;;;;;;5043983;28;20009;-83
2022/10/18 14:17:51;;;;;;;16.60;12.93;;;;;;;;;;5063863;28;20017;-83
2022/10/18 14:20:26;;;;;;;17.27;11.82;;;;;;;;;;5044120;28;20029;-83
2022/10/18 14:22:55;;;;;;;15.35;11.60;;;;;;;;;;5056511;28;20218;-84
2022/10/18 14:25:34;;;;;;;15.30;12.60;;;;;;;;;;5023593;28;20033;-84
2022/10/18 14:28:06;;;;;;;15.48;12.32;;;;;;;;;;5022893;28;20488;-84
2022/10/18 14:30:33;;;;;;;15.57;11.90;;;;;;;;;;5053045;28;20032;-84
2022/10/18 14:32:59;;;;;;;16.35;12.05;;;;;;;;;;5056169;28;20083;-84
2022/10/18 14:35:30;;;;;;;15.13;12.43;;;;;;;;;;5040923;28;20388;-83
2022/10/18 14:37:57;;;;;;;16.48;11.68;;;;;;;;;;5040728;28;20030;-84
2022/10/18 14:40:26;;;;;;;14.82;11.50;;;;;;;;;;5052767;28;20033;-84
2022/10/18 14:42:52;;;;;;;16.02;11.93;;;;;;;;;;5058325;28;20029;-84
2022/10/18 14:45:19;;;;;;;15.73;11.60;;;;;;;;;;5059041;28;20056;-84
2022/10/18 14:47:45;;;;;;;15.20;12.57;;;;;;;;;;5042636;28;20084;-84
2022/10/18 14:50:25;;;;;;;15.88;11.38;;;;;;;;;;5054539;28;20031;-84
2022/10/18 14:52:51;;;;;;;14.90;11.40;;;;;;;;;;5039426;28;20025;-84
2022/10/18 14:55:20;;;;;;;16.65;12.18;;;;;;;;;;5059656;28;20029;-83